Portada
METAR-TAF:

METAR-TAF

Aeroports :

Denpasar, Indonèsia

latitud: 08-44-53S, longitud: 115-10-03E, altitud: 4 m

Observació

L'informe es va fer fa 46 minuts, a les 12:00 UTC
Vent 11 kt del Est/Sud-Est
Temperatura 28°C
Humitat 89%
Pressió 1009 hPa
Visibilitat 10 km o més
Núvols disperses a una alçada de 1700 ft

METAR: WADD 141200Z 11011KT 9999 SCT017 28/26 Q1009 NOSIG

Hora: 19:46 (12:46 UTC)

Pronòstic

L'informe es va fer fa 1 hora i 46 minuts, a les 11:00 UTC
Pronòstic vàlid del 14 a les 12 UTC al 15 a les 12 UTC
Vent 12 kt del Est/Sud-Est
Visibilitat 10 km o més
Núvols disperses a una alçada de 1600 ft

TAF: WADD 141100Z 1412/1512 11012KT 9999 SCT016

Observacions i pronòstics meteorològics de més de 4000 aeroports (METAR i TAF).

Les estacions disponibles són els punts grocs i vermells al mapa.

Posi el ratolí al punt desitjat per veure el nom de l'estació.

Feu clic per veure les observacions i els pronòstics meteorològics.

Per canviar el mapa: feu clic els botons verds amb una creu de color negre per apropar; al botó verd amb un guió per allunyar la imatge; o en les fletxes verdes per a mapes adjacents.


METAR-TAF: